Time;durP1;ratioP1;P1;durP2;ratioP2;P2;SDS_P1;SDS_P2;PMS_P1;PMS_P2;Temp;Humidity;BMP_temperature;BMP_pressure;BME280_temperature;BME280_humidity;BME280_pressure;Samples;Min_cycle;Max_cycle;Signal;HPM_P1;HPM_P2
2022/04/23 00:01:11;;;;;;;24.05;12.70;;;11.20;99.90;;;;;;5057227;28;20180;-77
2022/04/23 00:03:36;;;;;;;30.02;13.43;;;11.20;99.90;;;;;;5056034;28;20037;-78
2022/04/23 00:06:03;;;;;;;25.15;12.23;;;11.10;99.90;;;;;;5038724;28;20049;-77
2022/04/23 00:08:29;;;;;;;27.15;12.93;;;11.10;99.90;;;;;;5038289;28;20055;-78
2022/04/23 00:10:54;;;;;;;26.30;12.88;;;11.10;99.90;;;;;;5055822;28;20147;-77
2022/04/23 00:13:21;;;;;;;28.15;13.68;;;11.00;99.90;;;;;;5037737;28;20041;-77
2022/04/23 00:15:47;;;;;;;24.83;13.50;;;11.10;99.90;;;;;;5037492;28;20056;-77
2022/04/23 00:18:13;;;;;;;31.70;13.88;;;11.10;99.90;;;;;;5020779;28;20126;-77
2022/04/23 00:20:39;;;;;;;28.20;14.07;;;11.00;99.90;;;;;;5020416;28;20041;-76
2022/04/23 00:23:07;;;;;;;28.10;13.23;;;11.00;99.90;;;;;;5038381;28;20049;-76
2022/04/23 00:25:35;;;;;;;;;;;11.00;99.90;;;;;;5038321;28;20044;-77
2022/04/23 00:28:01;;;;;;;25.40;13.23;;;11.00;99.90;;;;;;5056230;28;19927;-77
2022/04/23 00:30:27;;;;;;;27.25;12.68;;;10.90;99.90;;;;;;5056243;28;20165;-76
2022/04/23 00:32:53;;;;;;;27.85;13.75;;;10.90;99.90;;;;;;5038207;28;20045;-77
2022/04/23 00:35:19;;;;;;;31.85;13.85;;;10.90;99.90;;;;;;5038977;28;20056;-77
2022/04/23 00:37:46;;;;;;;29.73;13.88;;;10.90;99.90;;;;;;5056673;28;20056;-78
2022/04/23 00:40:16;;;;;;;28.40;13.55;;;10.90;99.90;;;;;;5039407;28;20049;-76
2022/04/23 00:43:01;;;;;;;26.75;13.60;;;11.00;99.90;;;;;;5039608;28;20049;-74
2022/04/23 00:45:28;;;;;;;31.75;14.25;;;11.00;99.90;;;;;;5057204;28;20045;-76
2022/04/23 00:47:55;;;;;;;27.33;14.23;;;11.00;99.90;;;;;;5055310;28;20052;-77
2022/04/23 00:50:22;;;;;;;27.50;14.30;;;11.00;99.90;;;;;;5037081;28;20041;-75
2022/04/23 00:53:00;;;;;;;29.33;14.77;;;10.90;99.90;;;;;;5037952;28;20136;-78
2022/04/23 00:55:27;;;;;;;30.45;14.43;;;10.90;99.90;;;;;;5020789;28;20049;-78
2022/04/23 00:57:54;;;;;;;28.90;14.30;;;10.80;99.90;;;;;;5054233;28;20049;-75
2022/04/23 01:00:19;;;;;;;31.83;14.68;;;10.90;99.90;;;;;;5020296;28;20098;-76
2022/04/23 01:02:45;;;;;;;30.65;15.30;;;10.80;99.90;;;;;;5036318;28;20049;-76
2022/04/23 01:05:12;;;;;;;31.00;15.35;;;10.90;99.90;;;;;;5037200;28;20079;-77
2022/04/23 01:07:42;;;;;;;29.27;14.43;;;10.90;99.90;;;;;;5036204;28;20049;-76
2022/04/23 01:10:09;;;;;;;30.67;15.63;;;10.90;99.90;;;;;;5054006;28;20401;-77
2022/04/23 01:12:36;;;;;;;30.42;15.48;;;10.80;99.90;;;;;;5037020;28;20060;-78
2022/04/23 01:15:08;;;;;;;31.58;15.63;;;10.90;99.90;;;;;;5037111;28;20194;-78
2022/04/23 01:17:35;;;;;;;28.55;15.40;;;10.80;99.90;;;;;;5037338;28;20397;-77
2022/04/23 01:20:14;;;;;;;31.73;14.50;;;10.70;99.90;;;;;;5054931;28;20083;-76
2022/04/23 01:22:44;;;;;;;30.40;15.25;;;10.70;99.90;;;;;;5036843;28;20067;-75
2022/04/23 01:25:12;;;;;;;28.17;15.50;;;10.70;99.90;;;;;;5020713;28;20049;-77
2022/04/23 01:27:40;;;;;;;29.25;15.65;;;10.70;99.90;;;;;;5036116;28;20045;-76
2022/04/23 01:30:08;;;;;;;35.80;17.02;;;10.70;99.90;;;;;;5036124;28;20045;-76
2022/04/23 01:32:34;;;;;;;30.95;14.95;;;10.70;99.90;;;;;;5036364;28;20053;-77
2022/04/23 01:35:00;;;;;;;29.50;15.15;;;10.70;99.90;;;;;;5019571;28;20052;-78
2022/04/23 01:37:26;;;;;;;37.65;15.93;;;10.60;99.90;;;;;;5036652;28;20323;-77
2022/04/23 01:39:52;;;;;;;34.40;16.05;;;10.60;99.90;;;;;;5053898;28;20064;-76
2022/04/23 01:42:18;;;;;;;34.22;15.75;;;10.60;99.90;;;;;;5053924;28;20106;-78
2022/04/23 01:44:53;;;;;;;29.73;14.75;;;10.60;99.90;;;;;;5018720;28;20113;-77
2022/04/23 01:47:19;;;;;;;32.30;15.80;;;10.50;99.90;;;;;;5035972;28;20049;-76
2022/04/23 01:49:45;;;;;;;31.55;16.30;;;10.50;99.90;;;;;;5053931;28;20041;-76
2022/04/23 01:52:14;;;;;;;30.38;16.33;;;10.60;99.90;;;;;;5052928;28;20049;-76
2022/04/23 01:54:40;;;;;;;33.83;16.10;;;10.50;99.90;;;;;;5018971;28;20053;-78
2022/04/23 01:57:06;;;;;;;30.00;16.33;;;10.50;99.90;;;;;;5053787;28;20164;-77
2022/04/23 01:59:32;;;;;;;32.88;16.52;;;10.50;99.90;;;;;;5034828;28;20048;-77
2022/04/23 02:02:01;;;;;;;29.73;15.13;;;10.40;99.90;;;;;;5034656;28;20136;-76
2022/04/23 02:04:27;;;;;;;34.08;16.98;;;10.40;99.90;;;;;;5053255;28;20345;-76
2022/04/23 02:06:53;;;;;;;30.67;15.43;;;10.40;99.90;;;;;;5035272;28;20134;-77
2022/04/23 02:09:19;;;;;;;33.90;16.83;;;10.40;99.90;;;;;;5034602;28;20122;-77
2022/04/23 02:11:45;;;;;;;30.98;16.10;;;10.30;99.90;;;;;;5034561;28;20151;-77
2022/04/23 02:14:11;;;;;;;32.28;15.77;;;10.30;99.90;;;;;;5018260;28;20098;-76
2022/04/23 02:16:36;;;;;;;32.10;15.93;;;10.30;99.90;;;;;;5052734;28;20091;-77
2022/04/23 02:19:03;;;;;;;30.88;15.88;;;10.30;99.90;;;;;;5052305;28;20527;-78
2022/04/23 02:21:30;;;;;;;30.83;15.85;;;10.20;99.90;;;;;;5053431;28;20084;-78
2022/04/23 02:23:56;;;;;;;31.35;15.80;;;10.10;99.90;;;;;;5052911;28;20133;-77
2022/04/23 02:26:23;;;;;;;28.97;16.20;;;10.10;99.90;;;;;;5034865;28;20051;-76
2022/04/23 02:28:49;;;;;;;30.93;14.30;;;10.10;99.90;;;;;;5052539;28;20283;-77
2022/04/23 02:31:15;;;;;;;32.42;17.33;;;10.10;99.90;;;;;;5034279;28;20124;-76
2022/04/23 02:33:41;;;;;;;35.15;17.20;;;10.20;99.90;;;;;;5052290;28;20056;-76
2022/04/23 02:36:08;;;;;;;27.88;15.57;;;10.10;99.90;;;;;;5052628;28;20053;-78
2022/04/23 02:38:34;;;;;;;27.58;15.77;;;10.10;99.90;;;;;;5052151;28;20049;-77
2022/04/23 02:41:00;;;;;;;34.53;15.43;;;10.00;99.90;;;;;;5052662;28;20052;-77
2022/04/23 02:43:26;;;;;;;31.30;15.68;;;10.00;99.90;;;;;;5034432;28;20155;-77
2022/04/23 02:45:52;;;;;;;29.65;16.02;;;10.00;99.90;;;;;;5052249;28;20544;-78
2022/04/23 02:48:18;;;;;;;30.60;16.27;;;9.90;99.90;;;;;;5018244;28;20082;-77
2022/04/23 02:50:45;;;;;;;30.88;16.08;;;9.80;99.90;;;;;;5051982;28;20041;-78
2022/04/23 02:53:10;;;;;;;31.65;15.70;;;9.70;99.90;;;;;;5052712;28;20059;-76
2022/04/23 02:55:37;;;;;;;30.20;16.48;;;9.70;99.90;;;;;;5017896;28;20419;-76
2022/04/23 02:58:07;;;;;;;32.15;15.55;;;9.70;99.90;;;;;;5033859;28;20067;-77
2022/04/23 03:00:33;;;;;;;35.50;17.23;;;9.60;99.90;;;;;;5051878;28;20041;-77
2022/04/23 03:02:59;;;;;;;29.60;15.93;;;9.60;99.90;;;;;;5033962;28;20041;-76
2022/04/23 03:05:26;;;;;;;29.35;14.73;;;9.60;99.90;;;;;;5052071;28;20291;-77
2022/04/23 03:07:53;;;;;;;30.20;16.10;;;9.50;99.90;;;;;;5051987;28;20128;-76
2022/04/23 03:10:19;;;;;;;31.73;16.05;;;9.50;99.90;;;;;;5051881;28;20098;-77
2022/04/23 03:12:45;;;;;;;29.83;14.55;;;9.40;99.90;;;;;;5034412;28;20044;-75
2022/04/23 03:15:19;;;;;;;27.90;14.38;;;9.10;99.90;;;;;;5033910;28;20095;-77
2022/04/23 03:17:45;;;;;;;30.15;15.63;;;9.40;99.90;;;;;;5034430;28;20053;-76
2022/04/23 03:20:12;;;;;;;29.63;14.57;;;9.40;99.90;;;;;;5051995;28;20083;-77
2022/04/23 03:22:42;;;;;;;34.33;14.40;;;9.40;99.90;;;;;;5017823;28;20187;-77
2022/04/23 03:25:10;;;;;;;28.85;14.63;;;9.30;99.90;;;;;;5034106;28;20048;-77
2022/04/23 03:27:36;;;;;;;28.92;14.45;;;9.30;99.90;;;;;;5052331;28;20060;-76
2022/04/23 03:30:03;;;;;;;28.20;14.57;;;9.30;99.90;;;;;;5017328;28;20037;-77
2022/04/23 03:32:29;;;;;;;27.92;14.38;;;9.30;99.90;;;;;;5051586;28;20485;-77
2022/04/23 03:34:54;;;;;;;29.35;14.02;;;9.20;99.90;;;;;;5033866;28;20045;-75
2022/04/23 03:37:21;;;;;;;29.05;13.88;;;9.30;99.90;;;;;;5033984;28;20072;-75
2022/04/23 03:39:48;;;;;;;28.63;13.80;;;9.20;99.90;;;;;;5030748;28;20494;-76
2022/04/23 03:42:14;;;;;;;27.60;13.93;;;9.20;99.90;;;;;;5030307;28;20061;-77
2022/04/23 03:44:40;;;;;;;28.33;14.15;;;9.20;99.90;;;;;;5030503;28;20049;-76
2022/04/23 03:47:06;;;;;;;26.75;13.13;;;9.20;99.90;;;;;;5013861;28;20071;-77
2022/04/23 03:49:31;;;;;;;28.52;13.85;;;9.30;99.90;;;;;;5013973;28;20046;-77
2022/04/23 03:51:58;;;;;;;28.27;13.98;;;9.20;99.90;;;;;;5014143;28;20049;-75
2022/04/23 03:54:24;;;;;;;28.30;14.20;;;9.20;99.90;;;;;;5031395;28;20516;-77
2022/04/23 03:56:50;;;;;;;25.67;13.07;;;9.20;99.90;;;;;;5030820;28;20054;-76
2022/04/23 03:59:20;;;;;;;28.17;13.60;;;9.20;99.90;;;;;;5030341;28;20060;-76
2022/04/23 04:01:47;;;;;;;27.08;13.70;;;9.20;99.90;;;;;;5030713;28;20045;-76
2022/04/23 04:04:14;;;;;;;29.98;13.27;;;9.10;99.90;;;;;;5031332;28;20088;-77
2022/04/23 04:06:41;;;;;;;28.10;14.30;;;9.00;99.90;;;;;;5032386;28;20080;-76
2022/04/23 04:09:07;;;;;;;24.13;12.73;;;9.20;99.90;;;;;;5001574;28;20071;-77
2022/04/23 04:12:01;;;;;;;25.23;13.15;;;9.10;99.90;;;;;;5033535;28;20129;-77
2022/04/23 04:14:19;;;;;;;29.80;13.43;;;9.00;99.90;;;;;;5033907;28;20064;-76
2022/04/23 04:16:46;;;;;;;27.60;14.77;;;9.00;99.90;;;;;;5034603;28;20049;-76
2022/04/23 04:19:15;;;;;;;28.98;13.65;;;9.00;99.90;;;;;;5034793;28;20053;-76
2022/04/23 04:21:46;;;;;;;29.98;13.68;;;9.00;99.90;;;;;;5033310;28;20049;-76
2022/04/23 04:24:13;;;;;;;24.80;13.07;;;9.10;99.90;;;;;;5033156;28;20096;-79
2022/04/23 04:26:43;;;;;;;25.73;13.30;;;9.10;99.90;;;;;;5033559;28;20045;-75
2022/04/23 04:29:10;;;;;;;25.50;12.57;;;9.10;99.90;;;;;;5034254;28;20490;-77
2022/04/23 04:31:49;;;;;;;26.95;12.82;;;9.00;99.90;;;;;;5033446;28;20051;-76
2022/04/23 04:34:32;;;;;;;24.63;12.77;;;9.00;99.90;;;;;;5033535;28;20080;-77
2022/04/23 04:37:05;;;;;;;24.85;13.68;;;9.00;99.90;;;;;;5035231;28;20073;-76
2022/04/23 04:39:31;;;;;;;24.15;12.18;;;9.00;99.90;;;;;;5033050;28;20469;-77
2022/04/23 04:41:57;;;;;;;25.88;12.52;;;9.00;99.90;;;;;;5034513;28;20136;-77
2022/04/23 04:44:23;;;;;;;25.67;12.52;;;9.00;99.90;;;;;;5034418;28;20173;-76
2022/04/23 04:46:49;;;;;;;30.38;11.90;;;9.00;99.90;;;;;;5034125;28;20057;-77
2022/04/23 04:49:15;;;;;;;24.13;12.70;;;9.10;99.90;;;;;;5033961;28;20354;-76
2022/04/23 04:51:40;;;;;;;22.95;11.70;;;9.10;99.90;;;;;;5032918;28;20080;-76
2022/04/23 04:54:07;;;;;;;22.48;11.18;;;9.20;99.90;;;;;;5000897;28;20049;-76
2022/04/23 04:56:33;;;;;;;23.83;11.97;;;9.20;99.90;;;;;;5034341;28;20068;-76
2022/04/23 04:59:00;;;;;;;23.42;12.35;;;9.30;99.90;;;;;;5000617;28;20444;-77
2022/04/23 05:01:26;;;;;;;22.98;11.10;;;9.40;99.90;;;;;;5032949;28;20081;-76
2022/04/23 05:03:53;;;;;;;21.85;11.07;;;9.40;99.90;;;;;;5015831;28;20045;-76
2022/04/23 05:06:20;;;;;;;20.85;10.88;;;9.50;99.90;;;;;;5033532;28;20054;-75
2022/04/23 05:08:45;;;;;;;21.85;11.02;;;9.50;99.90;;;;;;5032915;28;20076;-76
2022/04/23 05:11:11;;;;;;;19.52;10.73;;;9.60;99.90;;;;;;5016235;28;20057;-76
2022/04/23 05:13:40;;;;;;;24.27;11.32;;;9.60;99.90;;;;;;5016475;28;20054;-76
2022/04/23 05:16:07;;;;;;;23.88;10.45;;;9.60;99.90;;;;;;5034104;28;20038;-76
2022/04/23 05:18:34;;;;;;;18.75;9.48;;;9.70;99.90;;;;;;5031316;28;20084;-76
2022/04/23 05:21:00;;;;;;;18.67;9.73;;;9.70;99.90;;;;;;5016911;28;20433;-75
2022/04/23 05:23:26;;;;;;;22.67;10.82;;;9.80;99.90;;;;;;4983553;28;20053;-77
2022/04/23 05:25:52;;;;;;;21.75;10.25;;;9.90;99.90;;;;;;5016238;28;20041;-76
2022/04/23 05:28:18;;;;;;;20.75;9.80;;;10.00;99.90;;;;;;5032619;28;20053;-77
2022/04/23 05:30:44;;;;;;;20.92;9.93;;;10.00;99.90;;;;;;5033936;28;20053;-77
2022/04/23 05:33:10;;;;;;;19.80;10.27;;;10.10;99.90;;;;;;5032806;28;20041;-77
2022/04/23 05:35:36;;;;;;;20.40;9.10;;;10.20;99.90;;;;;;5033721;28;20045;-77
2022/04/23 05:38:03;;;;;;;18.45;8.95;;;10.20;99.90;;;;;;5016092;28;20065;-78
2022/04/23 05:40:28;;;;;;;17.83;9.48;;;10.30;99.90;;;;;;5051377;28;20049;-78
2022/04/23 05:42:57;;;;;;;18.58;9.10;;;10.30;99.90;;;;;;5035558;28;20053;-77
2022/04/23 05:45:27;;;;;;;17.02;9.50;;;10.40;99.90;;;;;;5019220;28;20385;-78
2022/04/23 05:47:53;;;;;;;17.50;9.27;;;10.60;99.90;;;;;;5035283;28;20128;-76
2022/04/23 05:50:19;;;;;;;17.08;8.32;;;10.50;99.90;;;;;;5019138;28;20041;-77
2022/04/23 05:52:45;;;;;;;16.90;8.48;;;10.70;99.90;;;;;;5035534;28;20037;-80
2022/04/23 05:55:11;;;;;;;17.20;9.93;;;10.70;99.90;;;;;;5002988;28;20396;-78
2022/04/23 05:57:37;;;;;;;15.68;7.80;;;10.60;99.90;;;;;;5053516;28;20390;-80
2022/04/23 06:00:05;;;;;;;16.67;8.97;;;10.70;99.90;;;;;;5035858;28;20049;-79
2022/04/23 06:02:31;;;;;;;18.65;8.52;;;10.60;99.90;;;;;;5034959;28;20284;-83
2022/04/23 06:05:07;;;;;;;16.95;9.57;;;10.70;99.90;;;;;;5035367;28;20044;-78
2022/04/23 06:07:33;;;;;;;17.27;9.23;;;10.70;99.90;;;;;;5035657;28;20102;-76
2022/04/23 06:10:00;;;;;;;19.25;9.77;;;10.70;99.90;;;;;;5052911;28;20045;-78
2022/04/23 06:12:25;;;;;;;19.38;10.27;;;10.70;99.90;;;;;;5002385;28;20477;-79
2022/04/23 06:14:51;;;;;;;19.80;9.48;;;10.80;99.90;;;;;;5018617;28;20083;-80
2022/04/23 06:17:26;;;;;;;21.45;10.20;;;10.80;99.90;;;;;;5018245;28;20084;-79
2022/04/23 06:19:52;;;;;;;20.15;9.70;;;10.90;99.90;;;;;;5019563;28;20063;-79
2022/04/23 06:22:19;;;;;;;15.88;7.00;;;10.90;99.90;;;;;;5035023;28;20053;-84
2022/04/23 06:24:46;;;;;;;22.15;10.07;;;11.00;99.90;;;;;;5035042;28;20049;-80
2022/04/23 06:27:15;;;;;;;18.85;10.15;;;11.10;99.90;;;;;;5034742;28;20045;-81
2022/04/23 06:29:44;;;;;;;17.30;10.05;;;11.10;99.90;;;;;;5034937;28;20055;-78
2022/04/23 06:32:10;;;;;;;20.15;9.73;;;11.10;99.90;;;;;;5035514;28;20045;-77
2022/04/23 06:34:39;;;;;;;23.13;11.17;;;11.10;99.90;;;;;;5018412;28;20045;-78
2022/04/23 06:37:05;;;;;;;19.30;10.02;;;11.20;99.90;;;;;;5035273;28;20133;-79
2022/04/23 06:39:31;;;;;;;21.13;10.25;;;11.20;99.90;;;;;;5017743;28;20053;-78
2022/04/23 06:41:58;;;;;;;20.17;10.83;;;11.30;99.90;;;;;;5052950;28;20053;-78
2022/04/23 06:44:26;;;;;;;22.77;10.52;;;11.30;99.90;;;;;;5019185;28;20287;-79
2022/04/23 06:46:52;;;;;;;21.35;9.90;;;11.30;99.90;;;;;;5034746;28;20370;-79
2022/04/23 06:49:18;;;;;;;19.40;10.50;;;11.30;99.90;;;;;;5052282;28;20045;-78
2022/04/23 06:51:43;;;;;;;19.10;8.68;;;11.40;99.90;;;;;;5018086;28;20041;-80
2022/04/23 06:54:09;;;;;;;21.88;12.02;;;11.40;99.90;;;;;;5034437;28;20492;-76
2022/04/23 06:56:39;;;;;;;21.88;11.32;;;11.40;99.90;;;;;;5034853;28;20045;-76
2022/04/23 06:59:07;;;;;;;22.05;11.30;;;11.40;99.90;;;;;;5017673;28;20076;-80
2022/04/23 07:01:33;;;;;;;21.95;11.50;;;11.50;99.90;;;;;;5018414;28;20491;-80
2022/04/23 07:03:59;;;;;;;22.95;12.38;;;11.60;99.90;;;;;;5017886;28;20091;-79
2022/04/23 07:06:25;;;;;;;21.50;10.45;;;11.60;99.90;;;;;;5017784;28;20065;-78
2022/04/23 07:08:51;;;;;;;23.80;11.35;;;11.70;99.90;;;;;;5018612;28;20079;-82
2022/04/23 07:11:17;;;;;;;18.92;10.77;;;11.70;99.90;;;;;;5017893;28;20457;-80
2022/04/23 07:13:43;;;;;;;20.88;11.20;;;11.80;99.90;;;;;;5034322;28;20049;-79
2022/04/23 07:16:13;;;;;;;18.40;10.10;;;11.80;99.90;;;;;;5052261;28;20098;-79
2022/04/23 07:18:44;;;;;;;23.92;11.77;;;11.90;99.90;;;;;;5017796;28;20067;-79
2022/04/23 07:21:10;;;;;;;20.00;10.73;;;11.90;99.90;;;;;;5034379;28;20045;-78
2022/04/23 07:26:20;;;;;;;21.17;11.63;;;12.10;99.90;;;;;;5020758;28;20059;-77
2022/04/23 07:28:46;;;;;;;21.92;11.55;;;12.10;99.90;;;;;;5052467;28;20049;-79
2022/04/23 07:31:12;;;;;;;23.55;12.32;;;12.20;99.90;;;;;;5017888;28;20052;-77
2022/04/23 07:39:06;;;;;;;26.85;12.27;;;12.30;99.90;;;;;;5034712;28;20052;-81
2022/04/23 07:41:33;;;;;;;23.73;9.73;;;12.50;99.90;;;;;;5053506;28;20134;-82
2022/04/23 07:43:59;;;;;;;25.17;10.32;;;12.50;99.90;;;;;;5006520;28;20063;-80
2022/04/23 07:46:25;;;;;;;25.35;10.57;;;12.50;99.90;;;;;;5038266;28;20051;-80
2022/04/23 07:48:51;;;;;;;23.45;11.48;;;12.50;99.90;;;;;;5021302;28;20041;-79
2022/04/23 07:51:17;;;;;;;27.10;11.90;;;12.60;99.90;;;;;;5021494;28;20132;-77
2022/04/23 07:53:43;;;;;;;21.67;11.30;;;12.60;99.90;;;;;;5037754;28;20083;-78
2022/04/23 07:56:08;;;;;;;25.45;11.77;;;12.70;99.90;;;;;;5038040;28;20044;-78
2022/04/23 07:58:35;;;;;;;25.65;11.27;;;12.80;99.90;;;;;;5037721;28;20049;-79
2022/04/23 08:01:01;;;;;;;24.60;10.07;;;12.90;99.90;;;;;;5037978;28;20048;-81
2022/04/23 08:03:28;;;;;;;24.40;12.10;;;13.00;99.90;;;;;;5038089;28;20052;-79
2022/04/23 08:05:54;;;;;;;23.02;11.30;;;13.10;99.90;;;;;;5055377;28;20113;-78
2022/04/23 08:08:21;;;;;;;22.90;11.40;;;13.20;99.90;;;;;;5037592;28;20053;-77
2022/04/23 08:10:47;;;;;;;30.30;11.70;;;13.30;99.90;;;;;;5037290;28;20091;-71
2022/04/23 08:13:14;;;;;;;28.13;10.57;;;13.40;99.90;;;;;;5037722;28;20087;-81
2022/04/23 08:15:40;;;;;;;31.15;12.70;;;13.40;99.90;;;;;;5055759;28;20135;-77
2022/04/23 08:18:06;;;;;;;24.92;11.23;;;13.50;99.90;;;;;;5021725;28;20429;-76
2022/04/23 08:20:32;;;;;;;25.33;11.38;;;13.50;99.90;;;;;;5055318;28;20033;-78
2022/04/23 08:22:58;;;;;;;23.08;10.30;;;13.60;99.90;;;;;;5055458;28;20041;-77
2022/04/23 08:25:24;;;;;;;26.25;10.88;;;13.60;99.00;;;;;;5055381;28;20049;-76
2022/04/23 08:30:34;;;;;;;17.92;8.98;;;13.60;98.90;;;;;;5021626;28;20045;-82
2022/04/23 08:30:41;;;;;;;23.15;11.07;;;13.70;98.00;;;;;;5037724;28;20388;-82
2022/04/23 08:33:07;;;;;;;23.58;9.35;;;13.70;97.70;;;;;;5022406;28;20190;-76
2022/04/23 08:35:35;;;;;;;22.90;11.30;;;13.80;97.10;;;;;;5055864;28;20460;-80
2022/04/23 08:38:01;;;;;;;20.48;9.80;;;13.80;97.10;;;;;;5056046;28;20045;-80
2022/04/23 08:40:29;;;;;;;22.23;10.20;;;13.90;96.90;;;;;;5055398;28;20092;-76
2022/04/23 08:42:57;;;;;;;26.02;8.73;;;13.90;97.00;;;;;;5037434;28;20045;-85
2022/04/23 08:45:23;;;;;;;19.33;9.85;;;13.90;96.60;;;;;;5055063;28;20048;-82
2022/04/23 08:47:51;;;;;;;31.13;11.82;;;14.00;95.70;;;;;;5054431;28;20055;-79
2022/04/23 08:50:21;;;;;;;23.52;10.02;;;14.00;95.90;;;;;;5037052;28;20041;-79
2022/04/23 08:52:53;;;;;;;23.95;10.32;;;14.10;95.20;;;;;;5054168;28;20040;-83
2022/04/23 08:55:20;;;;;;;22.55;9.68;;;14.20;95.30;;;;;;5055885;28;20052;-80
2022/04/23 08:57:49;;;;;;;24.83;10.93;;;14.20;94.70;;;;;;5037583;28;20063;-81
2022/04/23 09:00:15;;;;;;;18.70;10.32;;;14.30;94.50;;;;;;5020581;28;20409;-83
2022/04/23 09:02:42;;;;;;;22.95;8.95;;;14.30;94.20;;;;;;5054822;28;20124;-81
2022/04/23 09:05:13;;;;;;;24.15;10.85;;;14.40;94.60;;;;;;5054611;28;20049;-78
2022/04/23 09:07:39;;;;;;;20.65;10.45;;;14.40;94.40;;;;;;5054198;28;20045;-79
2022/04/23 09:10:06;;;;;;;20.55;10.43;;;14.50;94.60;;;;;;5037370;28;20055;-79
2022/04/23 09:12:32;;;;;;;21.67;11.57;;;14.60;93.30;;;;;;5038301;28;20373;-74
2022/04/23 09:24:09;;;;;;;20.40;10.63;;;14.80;92.20;;;;;;4973026;28;20051;-84
2022/04/23 09:26:35;;;;;;;20.67;10.48;;;14.90;91.80;;;;;;5033544;28;20053;-76
2022/04/23 09:29:20;;;;;;;29.40;11.05;;;14.90;91.90;;;;;;5053131;28;20060;-78
2022/04/23 09:31:46;;;;;;;21.85;10.73;;;14.90;91.30;;;;;;5021198;28;20194;-79
2022/04/23 09:34:16;;;;;;;25.00;10.95;;;14.90;91.10;;;;;;5036262;28;20147;-83
2022/04/23 09:36:49;;;;;;;19.88;11.10;;;14.90;91.00;;;;;;5036095;28;20047;-77
2022/04/23 09:39:15;;;;;;;20.85;11.00;;;14.90;90.90;;;;;;5018783;28;20550;-83
2022/04/23 09:41:41;;;;;;;19.48;11.23;;;14.90;91.00;;;;;;5053534;28;20045;-78
2022/04/23 09:44:09;;;;;;;21.40;10.65;;;15.00;90.70;;;;;;5020035;28;20045;-76
2022/04/23 09:46:45;;;;;;;19.63;10.27;;;15.00;90.40;;;;;;5053744;28;20055;-78
2022/04/23 09:49:12;;;;;;;22.55;11.70;;;15.00;90.30;;;;;;5035495;28;20057;-77
2022/04/23 09:51:38;;;;;;;18.90;11.10;;;14.90;90.50;;;;;;5035933;28;20056;-76
2022/04/23 09:54:04;;;;;;;19.02;10.25;;;15.00;90.60;;;;;;5054333;28;20045;-79
2022/04/23 09:56:30;;;;;;;19.45;10.93;;;15.10;90.40;;;;;;5036788;28;20400;-78
2022/04/23 09:58:57;;;;;;;21.92;12.57;;;15.10;90.20;;;;;;5020314;28;20123;-78
2022/04/23 10:01:24;;;;;;;21.50;11.18;;;15.20;89.60;;;;;;5053519;28;20084;-78
2022/04/23 10:03:50;;;;;;;;;;;15.30;90.40;;;;;;5019463;28;20100;-76
2022/04/23 10:06:17;;;;;;;;;;;15.40;89.70;;;;;;5035699;28;19971;-79
2022/04/23 10:08:47;;;;;;;23.35;11.68;;;15.50;89.10;;;;;;5053765;28;19971;-78
2022/04/23 10:11:25;;;;;;;20.05;11.02;;;15.60;87.80;;;;;;5053504;28;20080;-77
2022/04/23 10:13:56;;;;;;;21.40;11.80;;;15.60;87.00;;;;;;5036935;28;20044;-78
2022/04/23 10:16:23;;;;;;;21.55;12.55;;;15.60;87.50;;;;;;5053550;28;20044;-79
2022/04/23 10:18:49;;;;;;;20.13;12.17;;;15.60;86.70;;;;;;5002377;28;20056;-76
2022/04/23 10:21:26;;;;;;;19.52;11.38;;;15.70;84.40;;;;;;5017890;28;20768;-77
2022/04/23 10:24:13;;;;;;;22.75;11.73;;;15.70;86.00;;;;;;5034799;28;20037;-78
2022/04/23 10:27:07;;;;;;;20.33;9.98;;;15.80;86.30;;;;;;5035491;28;20117;-76
2022/04/23 10:29:33;;;;;;;24.95;12.43;;;15.90;84.80;;;;;;5053794;28;20128;-80
2022/04/23 10:32:14;;;;;;;22.48;11.98;;;15.80;84.10;;;;;;5034598;28;20056;-75
2022/04/23 10:34:41;;;;;;;21.92;11.80;;;15.80;83.90;;;;;;5052985;28;20081;-76
2022/04/23 10:37:17;;;;;;;20.50;11.93;;;16.00;84.10;;;;;;5053260;28;20064;-83
2022/04/23 10:39:52;;;;;;;20.67;10.95;;;16.00;83.20;;;;;;5034900;28;20064;-82
2022/04/23 10:42:23;;;;;;;21.55;11.95;;;16.10;82.90;;;;;;5036324;28;20075;-83
2022/04/23 10:44:51;;;;;;;20.00;11.38;;;16.00;82.30;;;;;;5053156;28;20122;-81
2022/04/23 10:47:30;;;;;;;23.08;11.68;;;16.00;83.10;;;;;;5052874;28;20052;-78
2022/04/23 10:50:24;;;;;;;25.60;12.68;;;16.10;82.80;;;;;;5034526;28;20512;-80
2022/04/23 10:52:51;;;;;;;21.88;12.50;;;16.20;82.60;;;;;;5052920;28;20051;-79
2022/04/23 10:55:17;;;;;;;22.95;12.43;;;16.20;80.60;;;;;;5034303;28;20057;-75
2022/04/23 10:57:54;;;;;;;20.65;11.82;;;16.20;81.50;;;;;;5018077;28;20136;-77
2022/04/23 11:00:27;;;;;;;20.23;11.57;;;16.30;81.10;;;;;;5035291;28;20111;-82
2022/04/23 11:03:26;;;;;;;24.30;11.70;;;16.30;79.90;;;;;;5051976;28;20465;-82
2022/04/23 11:14:39;;;;;;;19.08;11.38;;;16.40;78.90;;;;;;5052909;28;20044;-78
2022/04/23 11:17:05;;;;;;;20.88;11.75;;;16.40;76.20;;;;;;5042078;28;20048;-81
2022/04/23 11:19:31;;;;;;;21.15;11.55;;;16.40;77.00;;;;;;5022435;28;20045;-81
2022/04/23 11:21:57;;;;;;;22.38;11.75;;;16.40;75.30;;;;;;5038660;28;20469;-77
2022/04/23 11:24:24;;;;;;;24.05;12.13;;;16.40;76.20;;;;;;5038419;28;20079;-78
2022/04/23 11:26:51;;;;;;;18.88;11.55;;;16.30;76.40;;;;;;5039263;28;20048;-78
2022/04/23 11:29:17;;;;;;;23.33;11.20;;;16.40;76.50;;;;;;5023247;28;20040;-79
2022/04/23 11:31:53;;;;;;;20.88;10.82;;;16.50;77.10;;;;;;5022842;28;20099;-78
2022/04/23 11:34:19;;;;;;;16.80;10.48;;;16.60;75.30;;;;;;5039569;28;20045;-76
2022/04/23 11:36:45;;;;;;;18.57;11.07;;;16.60;74.70;;;;;;5058475;28;20048;-75
2022/04/23 11:39:13;;;;;;;20.70;10.13;;;16.60;76.00;;;;;;5057933;28;20083;-80
2022/04/23 11:41:47;;;;;;;19.38;11.00;;;16.70;76.20;;;;;;5040406;28;20067;-78
2022/04/23 11:47:06;;;;;;;23.58;10.98;;;16.90;74.20;;;;;;5056337;28;20084;-77
2022/04/23 11:49:33;;;;;;;20.63;11.07;;;16.90;74.80;;;;;;5057212;28;20114;-77
2022/04/23 11:52:11;;;;;;;23.42;10.80;;;17.00;72.70;;;;;;5039483;28;20045;-79
2022/04/23 11:54:42;;;;;;;17.52;10.38;;;17.00;71.50;;;;;;5038586;28;20190;-78
2022/04/23 11:57:13;;;;;;;21.38;10.48;;;16.90;70.60;;;;;;5038504;28;20049;-76
2022/04/23 11:59:43;;;;;;;21.75;10.88;;;17.00;71.10;;;;;;5021800;28;20136;-76
2022/04/23 12:02:21;;;;;;;17.60;10.30;;;16.90;70.60;;;;;;5038727;28;20083;-75
2022/04/23 12:04:49;;;;;;;22.33;11.30;;;17.00;70.20;;;;;;5055937;28;20052;-76
2022/04/23 12:07:15;;;;;;;19.15;11.05;;;17.00;70.80;;;;;;5024351;28;20049;-79
2022/04/23 12:09:50;;;;;;;16.35;10.52;;;17.00;71.40;;;;;;5021927;28;20147;-74
2022/04/23 12:12:26;;;;;;;17.67;9.55;;;17.00;71.10;;;;;;5038930;28;20045;-79
2022/04/23 12:14:57;;;;;;;16.92;9.65;;;17.00;69.90;;;;;;5039372;28;20533;-75
2022/04/23 12:17:27;;;;;;;16.88;8.60;;;17.00;69.10;;;;;;5038909;28;20106;-79
2022/04/23 12:19:54;;;;;;;19.48;10.57;;;17.00;68.60;;;;;;5021919;28;20092;-79
2022/04/23 12:22:29;;;;;;;14.40;9.27;;;17.00;67.90;;;;;;5021514;28;20433;-76
2022/04/23 12:25:18;;;;;;;14.23;8.85;;;17.00;67.50;;;;;;5037068;28;20045;-76
2022/04/23 12:28:03;;;;;;;15.27;9.07;;;17.10;67.30;;;;;;5036769;28;20076;-77
2022/04/23 12:42:11;;;;;;;15.98;8.60;;;17.30;65.00;;;;;;5056267;28;20177;-77
2022/04/23 12:44:46;;;;;;;13.27;7.72;;;17.20;64.10;;;;;;5037244;28;20083;-77
2022/04/23 12:47:17;;;;;;;14.48;7.55;;;17.30;64.40;;;;;;5037678;28;20052;-77
2022/04/23 12:49:47;;;;;;;20.30;7.90;;;17.30;63.80;;;;;;5037694;28;20052;-80
2022/04/23 12:52:21;;;;;;;28.77;8.82;;;17.40;62.40;;;;;;5020948;28;20090;-79
2022/04/23 12:55:25;;;;;;;13.43;7.93;;;17.40;62.70;;;;;;5038368;28;20512;-76
2022/04/23 12:57:54;;;;;;;14.85;7.43;;;17.50;63.40;;;;;;5003487;28;20048;-77
2022/04/23 13:00:21;;;;;;;14.95;8.23;;;17.50;63.70;;;;;;5037935;28;20049;-75
2022/04/23 13:02:50;;;;;;;;;;;17.60;61.20;;;;;;5055059;28;20054;-75
2022/04/23 13:05:16;;;;;;;14.00;7.68;;;17.50;61.80;;;;;;5020544;28;20332;-75
2022/04/23 13:10:27;;;;;;;16.85;7.95;;;17.50;60.60;;;;;;5055216;28;20041;-80
2022/04/23 13:12:53;;;;;;;14.00;7.78;;;17.60;60.50;;;;;;5054382;28;20405;-76
2022/04/23 13:15:18;;;;;;;12.30;7.55;;;17.60;59.80;;;;;;5036829;28;20079;-78
2022/04/23 13:17:46;;;;;;;18.38;7.75;;;17.60;59.80;;;;;;5020725;28;20049;-78
2022/04/23 13:20:13;;;;;;;13.00;6.90;;;17.60;58.50;;;;;;5036735;28;20053;-85
2022/04/23 13:22:43;;;;;;;;;;;17.60;58.50;;;;;;5020336;28;20060;-79